createdAt,value
2019-05-29T05:45:55.794Z,57.58
2019-05-29T05:46:55.783Z,57.45
2019-05-29T05:47:57.701Z,56.41
2019-05-29T05:48:55.753Z,56.61
2019-05-29T05:49:55.742Z,56.01
2019-05-29T05:50:55.731Z,55.57
2019-05-29T05:51:55.726Z,55.57
2019-05-29T05:52:55.706Z,56.05
2019-05-29T05:53:55.707Z,55.85
2019-05-29T05:54:55.694Z,54.61
2019-05-29T05:55:55.676Z,54.51
2019-05-29T05:56:55.677Z,54.11
2019-05-29T05:57:55.662Z,54.21
2019-05-29T05:58:55.643Z,53.47
2019-05-29T05:59:55.648Z,53.07
2019-05-29T06:00:55.619Z,53.19
2019-05-29T06:01:55.657Z,53.17
2019-05-29T06:02:55.602Z,52.84
2019-05-29T06:03:55.589Z,51.50
2019-05-29T06:04:55.579Z,52.21
2019-05-29T06:05:55.562Z,52.19
2019-05-29T06:06:55.563Z,51.76
2019-05-29T06:07:55.557Z,50.27
2019-05-29T06:08:55.545Z,50.55
2019-05-29T06:09:55.522Z,50.04
2019-05-29T06:10:55.544Z,49.92
2019-05-29T06:11:55.521Z,50.12
2019-05-29T06:12:55.490Z,50.75
2019-05-29T06:13:55.476Z,50.12
2019-05-29T06:14:55.463Z,49.79
2019-05-29T06:15:55.455Z,49.49
2019-05-29T06:16:55.444Z,49.90
2019-05-29T06:18:16.941Z,48.28
2019-05-29T06:18:56.430Z,48.76
2019-05-29T06:19:55.412Z,49.07
2019-05-29T06:20:55.396Z,48.18
2019-05-29T06:21:55.386Z,48.89
2019-05-29T06:22:55.397Z,48.58
2019-05-29T06:23:55.410Z,49.27
2019-05-29T06:24:55.364Z,49.16
2019-05-29T06:25:55.339Z,48.24
2019-05-29T06:26:55.342Z,48.26
2019-05-29T06:27:55.331Z,48.34
2019-05-29T06:28:55.306Z,48.34
2019-05-29T06:29:55.308Z,48.24
2019-05-29T06:30:55.284Z,48.41
2019-05-29T06:31:55.274Z,48.19
2019-05-29T06:32:55.273Z,48.19
2019-05-29T06:33:55.272Z,48.17
2019-05-29T06:34:55.242Z,46.73
2019-05-29T06:35:55.230Z,46.54
2019-05-29T06:36:55.259Z,45.21
2019-05-29T06:37:55.218Z,46.11
2019-05-29T06:38:55.200Z,45.01
2019-05-29T06:39:55.223Z,46.31
2019-05-29T06:40:55.170Z,45.18
2019-05-29T06:41:55.164Z,44.79
2019-05-29T06:42:55.172Z,44.18
2019-05-29T06:43:55.137Z,45.09
2019-05-29T06:44:55.130Z,44.91
2019-05-29T06:45:55.122Z,43.90
2019-05-29T06:46:55.105Z,44.00
2019-05-29T06:47:55.109Z,45.81
2019-05-29T06:49:00.177Z,45.01
2019-05-29T06:49:56.085Z,44.71
2019-05-29T06:50:57.429Z,44.40
2019-05-29T06:51:55.054Z,45.03
2019-05-29T06:52:55.045Z,45.73
2019-05-29T06:53:55.027Z,44.83
2019-05-29T06:54:55.014Z,44.73
2019-05-29T06:55:56.636Z,44.55
2019-05-29T06:56:54.993Z,44.37
2019-05-29T06:57:54.995Z,44.77
2019-05-29T06:58:54.969Z,46.14
2019-05-29T06:59:54.958Z,46.87
2019-05-29T07:00:54.948Z,46.87
2019-05-29T07:01:54.938Z,46.97
2019-05-29T07:02:54.926Z,47.80
2019-05-29T07:04:10.441Z,47.44
2019-05-29T07:04:55.905Z,50.70
2019-05-29T07:05:54.893Z,50.39
2019-05-29T07:06:54.881Z,49.71
2019-05-29T07:07:54.872Z,49.63
2019-05-29T07:08:54.874Z,51.05
2019-05-29T07:09:54.850Z,51.37
2019-05-29T07:10:54.837Z,53.63
2019-05-29T07:11:54.825Z,52.81
2019-05-29T07:12:54.814Z,53.45
2019-05-29T07:13:54.813Z,52.84
2019-05-29T07:14:54.793Z,53.93
2019-05-29T07:15:54.803Z,50.51
2019-05-29T07:16:56.272Z,50.11
2019-05-29T07:17:54.758Z,52.66
2019-05-29T07:19:24.023Z,53.09
2019-05-29T07:20:03.413Z,53.70
2019-05-29T07:20:55.726Z,54.41
2019-05-29T07:21:54.713Z,54.03
2019-05-29T07:22:54.704Z,52.99
2019-05-29T07:23:54.706Z,52.41
2019-05-29T07:24:54.678Z,53.02
2019-05-29T07:25:54.668Z,52.92
2019-05-29T07:26:54.659Z,54.13
2019-05-29T07:27:54.646Z,54.33
2019-05-29T07:29:06.810Z,54.71
2019-05-29T07:29:55.622Z,53.70
2019-05-29T07:31:01.599Z,54.11
2019-05-29T07:31:55.599Z,52.89
2019-05-29T07:32:58.485Z,53.40
2019-05-29T07:33:54.588Z,52.81
2019-05-29T07:35:03.217Z,52.20
2019-05-29T07:35:55.556Z,52.00
2019-05-29T07:36:54.545Z,51.80
2019-05-29T07:37:54.540Z,52.13
2019-05-29T07:39:03.032Z,52.46
2019-05-29T07:39:55.545Z,53.06
2019-05-29T07:40:54.529Z,53.06
2019-05-29T07:41:54.490Z,53.88
2019-05-29T07:42:56.650Z,53.85
2019-05-29T07:43:54.505Z,53.96
2019-05-29T07:44:54.488Z,53.37
2019-05-29T07:45:54.447Z,53.37
2019-05-29T07:46:54.453Z,53.67
2019-05-29T07:47:54.433Z,54.46
2019-05-29T07:48:54.449Z,55.07
2019-05-29T07:49:54.416Z,54.57
2019-05-29T07:51:06.292Z,53.55
2019-05-29T07:51:55.579Z,53.58
2019-05-29T07:52:54.508Z,53.78
2019-05-29T07:53:54.400Z,54.08
2019-05-29T07:54:54.347Z,54.08
2019-05-29T07:55:54.349Z,53.88
2019-05-29T07:56:54.323Z,55.40
2019-05-29T07:57:54.321Z,54.90
2019-05-29T07:59:02.455Z,54.69
2019-05-29T07:59:55.297Z,56.09
2019-05-29T08:01:11.811Z,55.58
2019-05-29T08:01:55.267Z,54.74
2019-05-29T08:02:54.260Z,54.66
2019-05-29T08:03:54.255Z,54.33
2019-05-29T08:04:54.273Z,53.42
2019-05-29T08:05:54.222Z,53.93
2019-05-29T08:06:54.714Z,53.72
2019-05-29T08:07:54.199Z,54.21
2019-05-29T08:08:54.192Z,53.91
2019-05-29T08:09:54.197Z,53.30
2019-05-29T08:10:54.178Z,53.70
2019-05-29T08:11:54.178Z,52.97
2019-05-29T08:12:55.679Z,53.47
2019-05-29T08:13:54.136Z,53.70
2019-05-29T08:14:54.132Z,53.78
2019-05-29T08:16:02.747Z,52.86
2019-05-29T08:16:55.102Z,53.85
2019-05-29T08:17:54.087Z,52.81
2019-05-29T08:18:54.083Z,50.77
2019-05-29T08:20:05.585Z,49.81
2019-05-29T08:20:55.058Z,48.90
2019-05-29T08:21:54.054Z,48.47
2019-05-29T08:22:54.106Z,48.37
2019-05-29T08:23:54.019Z,49.38
2019-05-29T08:24:54.026Z,48.45
2019-05-29T08:25:54.013Z,46.73
2019-05-29T08:26:54.006Z,46.84
2019-05-29T08:27:53.976Z,48.13
2019-05-29T08:28:53.986Z,47.24
2019-05-29T08:29:53.964Z,46.73
2019-05-29T08:30:56.327Z,46.33
2019-05-29T08:31:53.938Z,48.13
2019-05-29T08:32:53.953Z,47.32
2019-05-29T08:33:53.908Z,47.09
2019-05-29T08:34:53.909Z,46.79
2019-05-29T08:35:59.747Z,46.39
2019-05-29T08:37:04.790Z,44.67
2019-05-29T08:37:54.871Z,45.06
2019-05-29T08:38:53.854Z,44.87
2019-05-29T08:39:53.858Z,45.58
2019-05-29T08:40:53.871Z,44.17
2019-05-29T08:42:17.425Z,44.65
2019-05-29T08:42:54.809Z,45.54
2019-05-29T08:43:53.798Z,44.33
2019-05-29T08:44:53.788Z,43.42
2019-05-29T08:45:53.788Z,44.13
2019-05-29T08:47:09.052Z,44.21
2019-05-29T08:47:54.754Z,44.51
2019-05-29T08:48:53.744Z,44.79
2019-05-29T08:49:54.587Z,42.86
2019-05-29T08:50:53.726Z,43.34
2019-05-29T08:52:10.187Z,41.69
2019-05-29T08:52:54.715Z,40.87
2019-05-29T08:53:54.894Z,40.93
2019-05-29T08:54:53.678Z,40.81
2019-05-29T08:55:53.681Z,39.89
2019-05-29T08:56:53.652Z,38.55
2019-05-29T08:57:53.641Z,37.75
2019-05-29T08:58:53.668Z,37.81
2019-05-29T08:59:53.651Z,36.60
2019-05-29T09:00:55.307Z,36.49
2019-05-29T09:01:55.481Z,34.30
2019-05-29T09:02:53.589Z,34.58
2019-05-29T09:03:53.800Z,34.28
2019-05-29T09:04:54.889Z,35.86
2019-05-29T09:06:07.569Z,34.64
2019-05-29T09:06:54.541Z,33.95
2019-05-29T09:07:54.393Z,33.63
2019-05-29T09:08:54.905Z,34.01
2019-05-29T09:09:53.530Z,33.91
2019-05-29T09:10:54.236Z,34.09
2019-05-29T09:11:53.860Z,33.86
2019-05-29T09:13:03.945Z,33.26
2019-05-29T09:13:54.468Z,33.05
2019-05-29T09:14:53.459Z,32.64
2019-05-29T09:15:53.466Z,32.92
2019-05-29T09:16:53.446Z,32.24
2019-05-29T09:17:53.434Z,32.23
2019-05-29T09:18:53.430Z,31.51
2019-05-29T09:19:53.451Z,31.71
2019-05-29T09:21:02.957Z,32.01
2019-05-29T09:21:54.386Z,31.20
2019-05-29T09:22:53.376Z,32.20
2019-05-29T09:23:53.378Z,30.41
2019-05-29T09:24:53.349Z,30.83
2019-05-29T09:25:53.350Z,30.24
2019-05-29T09:26:53.330Z,31.45
2019-05-29T09:27:53.320Z,32.35
2019-05-29T09:28:53.311Z,32.26
2019-05-29T09:29:53.303Z,33.05
2019-05-29T09:30:53.296Z,32.44
2019-05-29T09:31:53.272Z,30.93
2019-05-29T09:32:53.480Z,31.45
2019-05-29T09:33:53.274Z,31.26
2019-05-29T09:34:53.245Z,30.28
2019-05-29T09:35:53.244Z,31.26
2019-05-29T09:36:55.715Z,30.75
2019-05-29T09:37:53.215Z,30.42
2019-05-29T09:38:53.653Z,30.13
2019-05-29T09:39:53.187Z,29.84
2019-05-29T09:40:53.250Z,29.44
2019-05-29T09:41:53.166Z,29.75
2019-05-29T09:42:53.161Z,29.57
2019-05-29T09:43:59.058Z,31.26
2019-05-29T09:44:54.160Z,31.46
2019-05-29T09:45:53.137Z,29.46
2019-05-29T09:46:53.121Z,30.45
2019-05-29T09:47:53.109Z,29.43
2019-05-29T09:48:53.094Z,28.73
2019-05-29T09:49:53.084Z,29.22
2019-05-29T09:50:53.079Z,28.52
2019-05-29T09:51:54.139Z,28.81
2019-05-29T09:52:54.967Z,29.22
2019-05-29T09:53:54.304Z,30.02
2019-05-29T09:54:54.600Z,28.33
2019-05-29T09:55:54.164Z,27.64
2019-05-29T09:56:54.955Z,29.22
2019-05-29T09:57:54.161Z,28.23
2019-05-29T09:58:54.311Z,28.33
2019-05-29T09:59:54.468Z,29.03
2019-05-29T10:01:15.453Z,30.00
2019-05-29T10:01:54.692Z,27.75
2019-05-29T10:02:53.990Z,28.55
2019-05-29T10:03:53.437Z,29.54
2019-05-29T10:04:54.515Z,29.82
2019-05-29T10:05:54.116Z,27.73
2019-05-29T10:06:53.124Z,28.81
2019-05-29T10:07:53.160Z,28.60
2019-05-29T10:08:54.180Z,28.11
2019-05-29T10:09:54.831Z,28.89
2019-05-29T10:11:03.877Z,27.09
2019-05-29T10:11:58.505Z,26.99
2019-05-29T10:12:55.348Z,27.58
2019-05-29T10:13:53.699Z,28.17
2019-05-29T10:14:53.703Z,28.17
2019-05-29T10:15:54.041Z,27.77
2019-05-29T10:16:56.031Z,28.05
2019-05-29T10:17:52.807Z,27.36
2019-05-29T10:18:52.788Z,27.56
2019-05-29T10:19:52.785Z,27.75
2019-05-29T10:20:52.771Z,27.55
2019-05-29T10:21:52.781Z,27.15
2019-05-29T10:22:52.751Z,27.56
2019-05-29T10:23:52.757Z,27.55
2019-05-29T10:24:52.728Z,27.34
2019-05-29T10:25:52.744Z,27.46
2019-05-29T10:26:52.710Z,27.74
2019-05-29T10:27:52.901Z,26.17
2019-05-29T10:29:06.855Z,27.08
2019-05-29T10:29:54.315Z,27.09
2019-05-29T10:30:52.934Z,28.47
2019-05-29T10:31:53.423Z,27.27
2019-05-29T10:32:53.039Z,28.15
2019-05-29T10:33:52.645Z,27.46
2019-05-29T10:34:52.765Z,27.14
2019-05-29T10:35:55.273Z,26.85
2019-05-29T10:36:54.589Z,27.37
2019-05-29T10:37:53.046Z,26.40
2019-05-29T10:38:52.754Z,27.92
2019-05-29T10:39:53.011Z,28.32
2019-05-29T10:41:05.617Z,28.42
2019-05-29T10:41:53.596Z,28.42
2019-05-29T10:42:53.543Z,28.32
2019-05-29T10:43:53.375Z,27.73
2019-05-29T10:44:53.266Z,29.22
2019-05-29T10:45:53.895Z,29.91
2019-05-29T10:46:54.709Z,28.62
2019-05-29T10:47:53.978Z,27.92
2019-05-29T10:48:54.700Z,28.02
2019-05-29T10:49:53.773Z,29.41
2019-05-29T10:50:53.885Z,29.10
2019-05-29T10:52:09.356Z,28.59
2019-05-29T10:52:54.257Z,29.25
2019-05-29T10:53:55.287Z,28.75
2019-05-29T10:54:54.443Z,29.23
2019-05-29T10:55:52.740Z,29.11
2019-05-29T10:56:52.965Z,27.63
2019-05-29T10:57:53.169Z,28.01
2019-05-29T10:58:58.142Z,28.21
2019-05-29T10:59:53.403Z,27.70
2019-05-29T11:00:53.403Z,27.01
2019-05-29T11:01:53.721Z,28.00
2019-05-29T11:02:54.571Z,27.01
2019-05-29T11:03:53.823Z,27.29
2019-05-29T11:04:56.362Z,26.20
2019-05-29T11:05:53.746Z,27.89
2019-05-29T11:06:52.684Z,28.66
2019-05-29T11:07:52.320Z,26.89
2019-05-29T11:08:52.420Z,27.17
2019-05-29T11:09:52.292Z,27.07
2019-05-29T11:10:52.281Z,25.08
2019-05-29T11:11:53.339Z,25.49
2019-05-29T11:12:52.677Z,25.29
2019-05-29T11:13:52.854Z,26.18
2019-05-29T11:14:52.889Z,26.46
2019-05-29T11:15:52.820Z,25.39
2019-05-29T11:16:53.388Z,25.89
2019-05-29T11:17:53.239Z,25.21
2019-05-29T11:18:53.385Z,26.74
2019-05-29T11:19:53.442Z,26.58
2019-05-29T11:20:53.364Z,27.37
2019-05-29T11:21:52.189Z,27.09
2019-05-29T11:22:52.166Z,28.27
2019-05-29T11:23:52.167Z,28.55
2019-05-29T11:24:52.405Z,28.25
2019-05-29T11:25:52.186Z,27.84
2019-05-29T11:26:52.551Z,26.84
2019-05-29T11:27:53.211Z,25.86
2019-05-29T11:28:52.364Z,25.97
2019-05-29T11:29:53.304Z,27.27
2019-05-29T11:30:53.588Z,27.19
2019-05-29T11:31:53.388Z,27.00
2019-05-29T11:32:53.066Z,27.10
2019-05-29T11:33:53.031Z,27.52
2019-05-29T11:34:53.672Z,27.85
2019-05-29T11:36:04.436Z,27.75
2019-05-29T11:36:54.152Z,28.55
2019-05-29T11:37:52.492Z,27.44
2019-05-29T11:38:52.592Z,27.95
2019-05-29T11:39:52.590Z,28.88
2019-05-29T11:41:03.721Z,29.58
2019-05-29T11:41:52.978Z,29.47
2019-05-29T11:42:52.774Z,29.25
2019-05-29T11:43:52.689Z,27.83
2019-05-29T11:44:53.317Z,27.55
2019-05-29T11:45:53.114Z,27.45
2019-05-29T11:46:52.195Z,28.73
2019-05-29T11:47:53.713Z,28.52
2019-05-29T11:48:53.105Z,28.59
2019-05-29T11:49:53.041Z,27.39
2019-05-29T11:50:52.147Z,28.05
2019-05-29T11:51:53.634Z,27.64
2019-05-29T11:52:52.313Z,26.92
2019-05-29T11:53:51.881Z,25.65
2019-05-29T11:54:55.955Z,25.84
2019-05-29T11:55:54.020Z,26.91
2019-05-29T11:56:53.616Z,26.60
2019-05-29T11:57:51.912Z,26.78
2019-05-29T11:58:52.746Z,25.79
2019-05-29T11:59:51.917Z,24.32
2019-05-29T12:00:52.859Z,24.41
2019-05-29T12:01:52.938Z,25.59
2019-05-29T12:02:53.597Z,24.30
2019-05-29T12:04:13.598Z,24.20
2019-05-29T12:04:53.133Z,24.98
2019-05-29T12:05:52.101Z,23.81
2019-05-29T12:06:51.736Z,24.99
2019-05-29T12:07:51.733Z,25.01
2019-05-29T12:08:51.715Z,24.67
2019-05-29T12:09:51.693Z,26.68
2019-05-29T12:10:51.673Z,26.37
2019-05-29T12:11:51.878Z,26.15
2019-05-29T12:12:51.653Z,26.84
2019-05-29T12:13:51.793Z,27.01
2019-05-29T12:15:00.735Z,26.02
2019-05-29T12:15:53.698Z,25.72
2019-05-29T12:16:51.786Z,25.52
2019-05-29T12:18:00.392Z,26.80
2019-05-29T12:18:53.635Z,25.40
2019-05-29T12:19:51.901Z,25.49
2019-05-29T12:20:52.076Z,24.40
2019-05-29T12:21:52.261Z,24.09
2019-05-29T12:23:13.255Z,23.81
2019-05-29T12:23:52.539Z,24.01
2019-05-29T12:24:52.536Z,24.40
2019-05-29T12:26:10.266Z,23.70
2019-05-29T12:26:52.517Z,23.71
2019-05-29T12:27:52.708Z,24.50
2019-05-29T12:28:53.473Z,23.93
2019-05-29T12:29:52.610Z,24.71
2019-05-29T12:30:53.260Z,23.22
2019-05-29T12:31:52.822Z,23.92
2019-05-29T12:32:52.636Z,24.03
2019-05-29T12:33:52.809Z,23.84
2019-05-29T12:34:54.138Z,25.13
2019-05-29T12:35:52.774Z,26.03
2019-05-29T12:36:51.393Z,25.93
2019-05-29T12:37:51.379Z,25.73
2019-05-29T12:38:51.366Z,24.45
2019-05-29T12:39:51.362Z,25.73
2019-05-29T12:40:51.345Z,26.03
2019-05-29T12:41:51.342Z,25.44
2019-05-29T12:42:51.416Z,25.92
2019-05-29T12:43:51.313Z,25.23
2019-05-29T12:44:51.652Z,25.72
2019-05-29T12:45:51.370Z,25.21
2019-05-29T12:46:51.277Z,25.51
2019-05-29T12:47:51.265Z,25.52
2019-05-29T12:48:51.259Z,25.13
2019-05-29T12:49:51.252Z,26.31
2019-05-29T12:50:51.233Z,25.99
2019-05-29T12:51:51.221Z,24.01
2019-05-29T12:52:51.223Z,24.20
2019-05-29T12:53:51.206Z,24.80
2019-05-29T12:54:51.199Z,24.71
2019-05-29T12:55:51.180Z,26.08
2019-05-29T12:56:51.195Z,24.69
2019-05-29T12:57:51.206Z,25.89
2019-05-29T12:58:51.147Z,24.49
2019-05-29T12:59:51.146Z,23.98
2019-05-29T13:00:51.207Z,24.07
2019-05-29T13:01:51.137Z,24.48
2019-05-29T13:02:51.106Z,23.68
2019-05-29T13:03:51.094Z,23.18
2019-05-29T13:05:06.899Z,22.69
2019-05-29T13:05:52.068Z,22.80
2019-05-29T13:06:51.059Z,22.52
2019-05-29T13:07:51.058Z,24.02
2019-05-29T13:08:51.042Z,22.93
2019-05-29T13:09:51.027Z,23.74
2019-05-29T13:10:51.025Z,23.73
2019-05-29T13:11:51.007Z,25.24
2019-05-29T13:12:51.675Z,25.84
2019-05-29T13:13:50.986Z,24.33
2019-05-29T13:14:50.975Z,24.24
2019-05-29T13:15:51.091Z,23.83
2019-05-29T13:16:50.967Z,24.62
2019-05-29T13:17:55.487Z,23.84
2019-05-29T13:18:51.931Z,23.44
2019-05-29T13:19:50.925Z,23.63
2019-05-29T13:20:50.917Z,23.14
2019-05-29T13:21:50.899Z,24.05
2019-05-29T13:22:50.891Z,23.68
2019-05-29T13:23:50.876Z,25.20
2019-05-29T13:24:52.827Z,25.12
2019-05-29T13:25:50.865Z,25.72
2019-05-29T13:26:50.845Z,25.93
2019-05-29T13:27:50.833Z,25.77
2019-05-29T13:28:50.862Z,26.99
2019-05-29T13:29:50.812Z,27.58
2019-05-29T13:30:50.812Z,27.58
2019-05-29T13:31:50.788Z,27.96
2019-05-29T13:32:50.810Z,26.76
2019-05-29T13:33:50.766Z,27.56
2019-05-29T13:34:50.758Z,28.36
2019-05-29T13:35:50.754Z,27.36
2019-05-29T13:36:50.781Z,28.08
2019-05-29T13:37:50.723Z,25.89
2019-05-29T13:38:50.713Z,26.28
2019-05-29T13:39:50.701Z,26.67
2019-05-29T13:40:50.700Z,26.98
2019-05-29T13:41:50.679Z,26.48
2019-05-29T13:42:50.669Z,27.58
2019-05-29T13:43:50.657Z,28.47
2019-05-29T13:44:50.772Z,28.26
2019-05-29T13:45:50.645Z,28.74
2019-05-29T13:46:50.626Z,28.34
2019-05-29T13:47:50.620Z,27.65
2019-05-29T13:48:50.611Z,27.25
2019-05-29T13:49:50.593Z,26.57
2019-05-29T13:50:50.587Z,25.87
2019-05-29T13:51:50.601Z,26.69
2019-05-29T13:52:50.561Z,26.61
2019-05-29T13:54:02.569Z,27.32
2019-05-29T13:54:51.535Z,28.70
2019-05-29T13:55:50.538Z,27.19
2019-05-29T13:56:50.670Z,28.19
2019-05-29T13:57:50.503Z,25.99
2019-05-29T13:58:50.493Z,26.48
2019-05-29T13:59:50.481Z,27.69
2019-05-29T14:00:50.470Z,28.87
2019-05-29T14:01:50.478Z,29.28
2019-05-29T14:02:50.449Z,28.77
2019-05-29T14:03:50.783Z,26.98
2019-05-29T14:04:50.440Z,26.38
2019-05-29T14:05:50.417Z,29.95
2019-05-29T14:06:52.953Z,26.87
2019-05-29T14:07:50.406Z,27.15
2019-05-29T14:08:50.382Z,26.64
2019-05-29T14:09:50.374Z,26.86
2019-05-29T14:10:50.358Z,26.37
2019-05-29T14:11:50.362Z,25.27
2019-05-29T14:12:50.338Z,26.07
2019-05-29T14:13:50.332Z,26.28
2019-05-29T14:14:50.315Z,26.76
2019-05-29T14:15:50.304Z,26.78
2019-05-29T14:16:50.315Z,27.37
2019-05-29T14:17:50.282Z,27.18
2019-05-29T14:18:50.336Z,27.97
2019-05-29T14:19:50.259Z,27.49
2019-05-29T14:20:50.251Z,28.40
2019-05-29T14:21:50.246Z,28.61
2019-05-29T14:22:50.226Z,28.73
2019-05-29T14:23:50.218Z,29.13
2019-05-29T14:24:50.201Z,28.83
2019-05-29T14:25:50.194Z,28.42
2019-05-29T14:26:50.188Z,29.34
2019-05-29T14:27:50.169Z,29.04
2019-05-29T14:28:50.158Z,28.14
2019-05-29T14:29:50.149Z,28.84
2019-05-29T14:30:50.137Z,29.25
2019-05-29T14:31:50.133Z,29.86
2019-05-29T14:32:50.129Z,29.68
2019-05-29T14:33:50.105Z,30.38
2019-05-29T14:34:50.092Z,30.27
2019-05-29T14:35:50.081Z,29.97
2019-05-29T14:36:50.080Z,31.67
2019-05-29T14:37:50.059Z,29.27
2019-05-29T14:38:50.048Z,29.47
2019-05-29T14:39:50.041Z,30.57
2019-05-29T14:40:50.026Z,31.16
2019-05-29T14:41:50.025Z,29.86
2019-05-29T14:42:50.003Z,29.77
2019-05-29T14:43:49.996Z,30.57
2019-05-29T14:44:49.981Z,29.67
2019-05-29T14:45:49.974Z,29.98
2019-05-29T14:46:49.970Z,31.38
2019-05-29T14:47:49.947Z,32.20
2019-05-29T14:48:49.939Z,31.48
2019-05-29T14:49:49.928Z,31.78
2019-05-29T14:50:49.916Z,31.87
2019-05-29T14:51:49.913Z,31.26
2019-05-29T14:52:49.892Z,31.48
2019-05-29T14:53:49.886Z,31.38
2019-05-29T14:54:49.869Z,31.68
2019-05-29T14:55:49.859Z,31.57
2019-05-29T14:56:49.867Z,31.26
2019-05-29T14:57:49.840Z,31.37
2019-05-29T14:58:49.830Z,31.46
2019-05-29T14:59:49.861Z,31.68
2019-05-29T15:00:49.804Z,31.37
2019-05-29T15:01:51.413Z,31.58
2019-05-29T15:02:49.782Z,31.26
2019-05-29T15:03:49.774Z,31.87
2019-05-29T15:04:49.761Z,32.06
2019-05-29T15:05:49.751Z,31.96
2019-05-29T15:06:49.753Z,32.76
2019-05-29T15:07:49.735Z,31.57
2019-05-29T15:08:49.716Z,31.76
2019-05-29T15:09:49.706Z,31.37
2019-05-29T15:10:49.692Z,31.67
2019-05-29T15:11:49.683Z,31.57
2019-05-29T15:12:49.702Z,31.87
2019-05-29T15:13:49.663Z,31.76
2019-05-29T15:14:49.652Z,31.68
2019-05-29T15:15:49.637Z,31.58
2019-05-29T15:16:49.626Z,32.18
2019-05-29T15:17:49.627Z,33.18
2019-05-29T15:18:49.606Z,33.47
2019-05-29T15:19:49.595Z,33.16
2019-05-29T15:20:49.592Z,32.06
2019-05-29T15:21:49.594Z,31.48
2019-05-29T15:22:49.584Z,31.78
2019-05-29T15:23:49.551Z,33.08
2019-05-29T15:25:01.369Z,33.56
2019-05-29T15:25:50.541Z,33.66
2019-05-29T15:26:49.517Z,32.67
2019-05-29T15:27:49.509Z,32.36
2019-05-29T15:28:49.494Z,32.86
2019-05-29T15:29:49.484Z,32.86
2019-05-29T15:30:49.489Z,32.67
2019-05-29T15:31:49.462Z,31.96
2019-05-29T15:32:49.828Z,32.36
2019-05-29T15:33:49.440Z,31.67
2019-05-29T15:34:49.435Z,32.18
2019-05-29T15:35:49.427Z,33.36
2019-05-29T15:36:49.428Z,32.46
2019-05-29T15:37:49.408Z,33.47
2019-05-29T15:38:49.400Z,33.06
2019-05-29T15:39:49.409Z,32.26
2019-05-29T15:40:49.366Z,32.17
2019-05-29T15:41:49.364Z,33.16
2019-05-29T15:42:49.341Z,33.16
2019-05-29T15:43:49.539Z,32.67
2019-05-29T15:44:49.346Z,31.38
2019-05-29T15:45:49.342Z,31.48
2019-05-29T15:46:49.305Z,31.99
2019-05-29T15:47:49.302Z,32.51
2019-05-29T15:48:49.275Z,32.32
2019-05-29T15:49:49.266Z,32.93
2019-05-29T15:50:49.265Z,33.01
2019-05-29T15:51:49.256Z,32.41
2019-05-29T15:52:49.232Z,32.51
2019-05-29T15:53:49.223Z,32.61
2019-05-29T15:54:49.311Z,32.61
2019-05-29T15:55:49.206Z,33.01
2019-05-29T15:56:49.193Z,33.51
2019-05-29T15:57:49.176Z,32.21
2019-05-29T15:58:49.171Z,33.01
2019-05-29T15:59:49.154Z,33.11
2019-05-29T16:00:49.144Z,33.00
2019-05-29T16:01:49.150Z,33.41
2019-05-29T16:02:49.922Z,32.89
2019-05-29T16:03:49.110Z,32.61
2019-05-29T16:04:49.097Z,32.51
2019-05-29T16:05:49.088Z,32.23
2019-05-29T16:06:49.103Z,33.43
2019-05-29T16:07:49.066Z,33.12
2019-05-29T16:08:49.054Z,34.21
2019-05-29T16:09:49.042Z,33.62
2019-05-29T16:10:49.030Z,32.62
2019-05-29T16:11:49.034Z,32.41
2019-05-29T16:12:49.017Z,33.51
2019-05-29T16:13:49.003Z,33.11
2019-05-29T16:14:48.997Z,33.41
2019-05-29T16:15:48.982Z,34.11
2019-05-29T16:16:48.975Z,34.11
2019-05-29T16:17:48.971Z,33.71
2019-05-29T16:18:48.949Z,33.51
2019-05-29T16:19:48.939Z,32.91
2019-05-29T16:20:48.923Z,32.91
2019-05-29T16:21:48.918Z,32.81
2019-05-29T16:22:48.910Z,33.51
2019-05-29T16:23:48.888Z,34.71
2019-05-29T16:24:48.879Z,32.43
2019-05-29T16:25:48.875Z,32.53
2019-05-29T16:26:48.858Z,33.03
2019-05-29T16:27:48.858Z,33.12
2019-05-29T16:28:48.835Z,34.05
2019-05-29T16:29:48.827Z,33.46
2019-05-29T16:30:48.816Z,33.07
2019-05-29T16:31:48.811Z,33.58
2019-05-29T16:32:48.806Z,33.69
2019-05-29T16:33:48.794Z,33.09
2019-05-29T16:34:48.771Z,33.69
2019-05-29T16:35:48.870Z,34.59
2019-05-29T16:36:48.745Z,35.38
2019-05-29T16:37:48.750Z,33.87
2019-05-29T16:38:48.724Z,34.67
2019-05-29T16:39:48.742Z,33.67
2019-05-29T16:40:48.706Z,35.06
2019-05-29T16:41:48.788Z,34.56
2019-05-29T16:42:48.785Z,34.98
2019-05-29T16:43:48.743Z,34.88
2019-05-29T16:44:48.715Z,35.56
2019-05-29T16:45:48.721Z,35.26
2019-05-29T16:46:48.703Z,34.26
2019-05-29T16:47:48.738Z,34.46
2019-05-29T16:48:48.682Z,34.26
2019-05-29T16:49:48.695Z,34.48
2019-05-29T16:50:48.695Z,34.17
2019-05-29T16:51:48.683Z,34.46
2019-05-29T16:52:48.749Z,35.46
2019-05-29T16:53:49.290Z,34.56
2019-05-29T16:54:48.725Z,34.76
2019-05-29T16:55:53.818Z,33.86
2019-05-29T16:56:49.521Z,34.66
2019-05-29T16:57:48.527Z,34.86
2019-05-29T16:58:48.500Z,33.96
2019-05-29T16:59:48.501Z,34.26
2019-05-29T17:00:48.491Z,33.96
2019-05-29T17:01:48.472Z,33.46
2019-05-29T17:02:48.476Z,34.06
2019-05-29T17:03:48.463Z,33.96
2019-05-29T17:04:48.444Z,33.26
2019-05-29T17:05:48.428Z,34.36
2019-05-29T17:06:48.414Z,33.86
2019-05-29T17:07:48.412Z,33.58
2019-05-29T17:08:48.391Z,33.07
2019-05-29T17:09:48.385Z,33.58
2019-05-29T17:10:48.370Z,35.28
2019-05-29T17:11:48.358Z,34.48
2019-05-29T17:12:48.494Z,34.08
2019-05-29T17:13:48.336Z,35.08
2019-05-29T17:14:48.329Z,33.98
2019-05-29T17:15:48.317Z,34.38
2019-05-29T17:16:48.302Z,34.39
2019-05-29T17:17:48.292Z,34.59
2019-05-29T17:18:48.502Z,34.17
2019-05-29T17:19:48.269Z,33.79
2019-05-29T17:20:48.256Z,34.19
2019-05-29T17:21:48.249Z,34.61
2019-05-29T17:22:48.232Z,34.29
2019-05-29T17:23:48.229Z,34.09
2019-05-29T17:24:48.211Z,34.21
2019-05-29T17:25:48.200Z,34.49
2019-05-29T17:26:48.196Z,34.91
2019-05-29T17:27:48.177Z,34.69
2019-05-29T17:28:48.175Z,34.31
2019-05-29T17:29:48.154Z,34.51
2019-05-29T17:30:48.145Z,34.41
2019-05-29T17:31:48.133Z,35.01
2019-05-29T17:32:48.122Z,35.31
2019-05-29T17:33:48.125Z,35.91
2019-05-29T17:34:48.100Z,36.33
2019-05-29T17:35:48.095Z,36.02
2019-05-29T17:36:48.202Z,35.82
2019-05-29T17:37:48.062Z,36.13
2019-05-29T17:38:48.085Z,36.23
2019-05-29T17:39:48.040Z,36.52
2019-05-29T17:40:48.039Z,36.93
2019-05-29T17:41:48.021Z,35.53
2019-05-29T17:42:48.011Z,37.42
2019-05-29T17:43:48.004Z,36.92
2019-05-29T17:44:47.982Z,36.72
2019-05-29T17:45:47.972Z,35.83
2019-05-29T17:46:47.962Z,36.23
2019-05-29T17:47:47.952Z,36.02
2019-05-29T17:48:47.962Z,35.51
2019-05-29T17:49:47.929Z,36.03
2019-05-29T17:50:47.925Z,36.02
2019-05-29T17:51:47.960Z,36.02
2019-05-29T17:52:47.900Z,36.13
2019-05-29T17:53:47.905Z,36.03
2019-05-29T17:54:47.873Z,37.34
2019-05-29T17:55:47.861Z,38.34
2019-05-29T17:56:47.851Z,37.82
2019-05-29T17:57:47.872Z,37.22
2019-05-29T17:58:47.841Z,37.12
2019-05-29T17:59:47.820Z,37.54
2019-05-29T18:00:47.810Z,37.13
2019-05-29T18:01:47.908Z,37.44
2019-05-29T18:02:52.297Z,37.34
2019-05-29T18:03:47.788Z,37.44
2019-05-29T18:04:47.810Z,37.92
2019-05-29T18:05:47.758Z,37.13
2019-05-29T18:06:47.746Z,37.84
2019-05-29T18:07:47.728Z,37.74
2019-05-29T18:08:47.716Z,36.54
2019-05-29T18:09:48.787Z,37.44
2019-05-29T18:10:47.727Z,38.72
2019-05-29T18:11:47.681Z,38.02
2019-05-29T18:12:47.671Z,37.44
2019-05-29T18:13:47.661Z,37.54
2019-05-29T18:14:47.659Z,37.54
2019-05-29T18:15:47.640Z,36.93
2019-05-29T18:16:47.691Z,36.93
2019-05-29T18:17:47.649Z,37.15
2019-05-29T18:18:47.642Z,38.26
2019-05-29T18:19:47.614Z,38.04
2019-05-29T18:20:47.580Z,38.06
2019-05-29T18:21:47.581Z,37.55
2019-05-29T18:22:47.558Z,37.46
2019-05-29T18:23:47.548Z,38.34
2019-05-29T18:24:47.543Z,38.44
2019-05-29T18:25:47.529Z,38.44
2019-05-29T18:26:47.683Z,37.74
2019-05-29T18:27:47.615Z,38.16
2019-05-29T18:28:47.532Z,38.36
2019-05-29T18:29:47.487Z,38.56
2019-05-29T18:30:47.480Z,38.26
2019-05-29T18:31:47.457Z,38.56
2019-05-29T18:32:47.456Z,38.36
2019-05-29T18:33:47.438Z,38.86
2019-05-29T18:34:51.210Z,38.26
2019-05-29T18:35:47.411Z,38.26
2019-05-29T18:36:47.399Z,38.96
2019-05-29T18:37:47.390Z,39.28